createdAt,value
2017-09-16T00:02:10.813Z,8.09
2017-09-16T00:04:39.127Z,8.12
2017-09-16T00:07:07.459Z,8.05
2017-09-16T00:09:35.786Z,7.95
2017-09-16T00:12:04.155Z,7.87
2017-09-16T00:14:32.476Z,7.81
2017-09-16T00:17:00.815Z,7.72
2017-09-16T00:19:29.906Z,7.72
2017-09-16T00:21:59.003Z,7.74
2017-09-16T00:24:28.109Z,7.63
2017-09-16T00:26:57.200Z,7.47
2017-09-16T00:29:26.298Z,7.47
2017-09-16T00:31:55.390Z,7.38
2017-09-16T00:34:24.773Z,7.32
2017-09-16T00:36:53.104Z,7.35
2017-09-16T00:39:21.415Z,7.34
2017-09-16T00:41:49.750Z,7.20
2017-09-16T00:44:18.063Z,7.27
2017-09-16T00:46:46.400Z,7.43
2017-09-16T00:49:14.723Z,7.52
2017-09-16T00:51:43.064Z,7.50
2017-09-16T00:54:11.480Z,7.43
2017-09-16T00:56:40.568Z,7.37
2017-09-16T00:59:09.631Z,7.27
2017-09-16T01:01:37.953Z,7.37
2017-09-16T01:04:06.390Z,7.11
2017-09-16T01:06:34.740Z,7.16
2017-09-16T01:09:04.194Z,7.19
2017-09-16T01:11:32.517Z,7.12
2017-09-16T01:14:00.847Z,7.16
2017-09-16T01:16:29.185Z,7.19
2017-09-16T01:18:58.276Z,7.24
2017-09-16T01:21:26.617Z,7.24
2017-09-16T01:23:55.851Z,7.19
2017-09-16T01:26:24.197Z,7.01
2017-09-16T01:28:52.536Z,6.77
2017-09-16T01:31:21.715Z,6.90
2017-09-16T01:33:50.061Z,6.85
2017-09-16T01:36:18.399Z,6.75
2017-09-16T01:38:46.742Z,6.83
2017-09-16T01:41:15.064Z,6.72
2017-09-16T01:43:43.400Z,6.68
2017-09-16T01:46:11.731Z,6.79
2017-09-16T01:48:40.066Z,6.90
2017-09-16T01:51:08.404Z,6.77
2017-09-16T01:53:36.722Z,6.83
2017-09-16T01:56:05.060Z,6.80
2017-09-16T01:58:33.394Z,6.81
2017-09-16T02:01:02.486Z,6.85
2017-09-16T02:03:31.657Z,6.75
2017-09-16T02:06:00.002Z,6.82
2017-09-16T02:08:28.369Z,6.68
2017-09-16T02:10:56.689Z,6.49
2017-09-16T02:13:25.045Z,6.45
2017-09-16T02:15:53.387Z,6.32
2017-09-16T02:18:22.463Z,6.34
2017-09-16T02:20:50.799Z,6.40
2017-09-16T02:23:19.132Z,6.35
2017-09-16T02:25:47.457Z,6.32
2017-09-16T02:28:15.784Z,6.23
2017-09-16T02:30:44.120Z,6.38
2017-09-16T02:33:12.461Z,6.41
2017-09-16T02:35:41.546Z,6.33
2017-09-16T02:38:09.887Z,6.42
2017-09-16T02:40:38.203Z,6.34
2017-09-16T02:43:06.544Z,6.26
2017-09-16T02:45:34.851Z,6.17
2017-09-16T02:48:03.202Z,5.87
2017-09-16T02:50:31.540Z,6.18
2017-09-16T02:53:00.633Z,6.12
2017-09-16T02:55:29.741Z,6.09
2017-09-16T02:57:58.971Z,6.21
2017-09-16T03:00:27.344Z,5.93
2017-09-16T03:02:55.659Z,6.06
2017-09-16T03:05:23.994Z,6.12
2017-09-16T03:07:52.310Z,6.19
2017-09-16T03:10:20.626Z,6.19
2017-09-16T03:12:48.969Z,6.15
2017-09-16T03:15:18.056Z,5.95
2017-09-16T03:17:46.414Z,6.00
2017-09-16T03:20:15.343Z,6.02
2017-09-16T03:22:45.025Z,5.76
2017-09-16T03:25:13.358Z,5.81
2017-09-16T03:27:42.466Z,5.73
2017-09-16T03:30:11.572Z,5.64
2017-09-16T03:32:39.896Z,5.58
2017-09-16T03:35:08.243Z,5.54
2017-09-16T03:37:36.580Z,5.80
2017-09-16T03:40:05.696Z,5.59
2017-09-16T03:42:34.016Z,5.46
2017-09-16T03:45:02.343Z,5.52
2017-09-16T03:47:31.501Z,5.53
2017-09-16T03:49:59.826Z,5.42
2017-09-16T03:52:28.941Z,5.54
2017-09-16T03:54:57.273Z,5.29
2017-09-16T03:57:25.889Z,5.32
2017-09-16T03:59:54.978Z,5.22
2017-09-16T04:02:41.692Z,5.25
2017-09-16T04:05:10.784Z,5.24
2017-09-16T04:07:39.894Z,5.10
2017-09-16T04:10:08.224Z,5.06
2017-09-16T04:12:37.450Z,5.03
2017-09-16T04:15:06.561Z,5.05
2017-09-16T04:17:35.644Z,4.96
2017-09-16T04:20:05.015Z,5.06
2017-09-16T04:22:33.325Z,5.03
2017-09-16T04:25:02.438Z,4.95
2017-09-16T04:27:31.558Z,5.05
2017-09-16T04:29:59.891Z,5.10
2017-09-16T04:32:28.242Z,5.25
2017-09-16T04:34:56.563Z,5.05
2017-09-16T04:37:25.676Z,4.96
2017-09-16T04:39:54.358Z,4.97
2017-09-16T04:42:23.478Z,5.18
2017-09-16T04:44:51.829Z,4.98
2017-09-16T04:47:20.923Z,4.88
2017-09-16T04:49:50.038Z,4.93
2017-09-16T04:52:18.375Z,4.89
2017-09-16T04:54:46.718Z,4.90
2017-09-16T04:57:15.065Z,4.89
2017-09-16T04:59:44.160Z,4.84
2017-09-16T05:02:12.516Z,4.80
2017-09-16T05:04:40.853Z,4.87
2017-09-16T05:07:09.227Z,4.75
2017-09-16T05:09:37.569Z,4.70
2017-09-16T05:12:06.700Z,4.66
2017-09-16T05:14:35.034Z,4.66
2017-09-16T05:17:03.347Z,4.86
2017-09-16T05:19:31.682Z,4.77
2017-09-16T05:21:59.999Z,4.62
2017-09-16T05:24:28.340Z,4.68
2017-09-16T05:26:56.678Z,4.73
2017-09-16T05:29:25.032Z,4.82
2017-09-16T05:31:54.132Z,4.76
2017-09-16T05:34:22.577Z,4.75
2017-09-16T05:36:50.931Z,4.77
2017-09-16T05:39:19.250Z,4.92
2017-09-16T05:41:48.359Z,5.07
2017-09-16T05:44:17.528Z,5.07
2017-09-16T05:46:46.186Z,5.06
2017-09-16T05:49:15.417Z,4.87
2017-09-16T05:51:43.815Z,4.88
2017-09-16T05:54:13.201Z,4.96
2017-09-16T05:56:42.652Z,4.98
2017-09-16T05:59:11.121Z,5.10
2017-09-16T06:01:42.578Z,5.14
2017-09-16T06:04:11.303Z,5.10
2017-09-16T06:06:41.216Z,5.14
2017-09-16T06:09:09.958Z,5.14
2017-09-16T06:11:39.733Z,5.14
2017-09-16T06:14:08.728Z,5.14
2017-09-16T06:16:38.003Z,5.25
2017-09-16T06:19:06.526Z,5.35
2017-09-16T06:21:34.922Z,5.49
2017-09-16T06:24:03.476Z,5.63
2017-09-16T06:26:31.973Z,5.55
2017-09-16T06:29:00.834Z,5.61
2017-09-16T06:31:29.480Z,5.77
2017-09-16T06:33:57.908Z,5.93
2017-09-16T06:36:26.402Z,5.90
2017-09-16T06:38:55.264Z,5.98
2017-09-16T06:41:23.705Z,6.08
2017-09-16T06:43:52.277Z,6.15
2017-09-16T06:46:20.631Z,6.21
2017-09-16T06:48:48.995Z,6.32
2017-09-16T06:51:17.368Z,6.46
2017-09-16T06:53:46.050Z,6.54
2017-09-16T06:56:14.505Z,6.44
2017-09-16T06:58:42.948Z,6.44
2017-09-16T07:01:11.320Z,6.61
2017-09-16T07:03:39.675Z,6.56
2017-09-16T07:06:08.026Z,6.58
2017-09-16T07:08:37.183Z,6.54
2017-09-16T07:11:05.500Z,6.69
2017-09-16T07:13:33.862Z,6.65
2017-09-16T07:16:02.183Z,6.68
2017-09-16T07:18:30.515Z,6.76
2017-09-16T07:20:58.845Z,6.78
2017-09-16T07:23:27.923Z,6.96
2017-09-16T07:25:57.020Z,7.06
2017-09-16T07:28:25.372Z,7.05
2017-09-16T07:30:53.704Z,7.21
2017-09-16T07:33:22.014Z,7.15
2017-09-16T07:35:50.327Z,7.20
2017-09-16T07:38:18.674Z,7.31
2017-09-16T07:40:47.000Z,7.47
2017-09-16T07:43:15.365Z,7.50
2017-09-16T07:45:43.703Z,7.49
2017-09-16T07:48:12.050Z,7.42
2017-09-16T07:50:40.392Z,7.32
2017-09-16T07:53:10.052Z,7.45
2017-09-16T07:55:38.403Z,7.46
2017-09-16T07:58:06.768Z,7.47
2017-09-16T08:00:35.138Z,7.56
2017-09-16T08:03:04.559Z,7.69
2017-09-16T08:05:32.881Z,7.80
2017-09-16T08:08:01.227Z,7.90
2017-09-16T08:10:29.578Z,7.96
2017-09-16T08:12:57.990Z,8.05
2017-09-16T08:15:26.332Z,8.17
2017-09-16T08:17:54.696Z,8.33
2017-09-16T08:20:23.040Z,8.43
2017-09-16T08:22:51.538Z,8.59
2017-09-16T08:25:19.908Z,8.71
2017-09-16T08:27:48.612Z,8.82
2017-09-16T08:30:16.975Z,8.95
2017-09-16T08:32:45.306Z,9.04
2017-09-16T08:35:14.778Z,9.15
2017-09-16T08:37:43.111Z,9.27
2017-09-16T08:40:11.455Z,9.37
2017-09-16T08:42:40.018Z,9.41
2017-09-16T08:45:08.353Z,9.55
2017-09-16T08:47:37.461Z,9.65
2017-09-16T08:50:05.804Z,9.81
2017-09-16T08:52:34.161Z,9.95
2017-09-16T08:55:02.986Z,10.08
2017-09-16T08:57:31.372Z,10.30
2017-09-16T08:59:59.772Z,10.45
2017-09-16T09:02:28.118Z,10.53
2017-09-16T09:04:56.455Z,10.68
2017-09-16T09:07:24.792Z,10.76
2017-09-16T09:09:54.201Z,10.87
2017-09-16T09:12:22.544Z,10.97
2017-09-16T09:14:50.877Z,11.11
2017-09-16T09:17:19.226Z,11.24
2017-09-16T09:19:48.330Z,11.37
2017-09-16T09:22:16.678Z,11.46
2017-09-16T09:24:45.016Z,11.62
2017-09-16T09:27:13.669Z,11.72
2017-09-16T09:29:42.802Z,11.87
2017-09-16T09:32:11.144Z,12.02
2017-09-16T09:34:39.490Z,12.17
2017-09-16T09:37:07.842Z,12.26
2017-09-16T09:39:36.226Z,12.48
2017-09-16T09:42:04.544Z,12.52
2017-09-16T09:44:32.879Z,12.61
2017-09-16T09:47:01.264Z,12.69
2017-09-16T09:49:29.617Z,12.80
2017-09-16T09:51:57.970Z,12.97
2017-09-16T09:54:26.297Z,13.13
2017-09-16T09:56:54.651Z,13.24
2017-09-16T09:59:22.972Z,13.31
2017-09-16T10:01:51.312Z,13.43
2017-09-16T10:04:20.451Z,13.51
2017-09-16T10:06:48.788Z,13.63
2017-09-16T10:09:17.147Z,13.63
2017-09-16T10:11:45.496Z,13.79
2017-09-16T10:14:13.858Z,13.81
2017-09-16T10:16:42.248Z,13.86
2017-09-16T10:19:10.933Z,13.82
2017-09-16T10:21:39.281Z,13.84
2017-09-16T10:24:07.616Z,13.91
2017-09-16T10:26:35.988Z,14.00
2017-09-16T10:29:04.365Z,14.09
2017-09-16T10:31:32.797Z,14.17
2017-09-16T10:34:01.211Z,14.30
2017-09-16T10:36:29.678Z,14.34
2017-09-16T10:38:58.066Z,14.56
2017-09-16T10:41:26.409Z,14.63
2017-09-16T10:43:55.641Z,14.74
2017-09-16T10:46:23.958Z,14.84
2017-09-16T10:48:52.304Z,14.90
2017-09-16T10:51:21.410Z,15.00
2017-09-16T10:53:49.818Z,15.11
2017-09-16T10:56:18.171Z,15.18
2017-09-16T10:58:46.509Z,15.23
2017-09-16T11:01:14.861Z,15.33
2017-09-16T11:03:44.107Z,15.46
2017-09-16T11:06:12.464Z,15.47
2017-09-16T11:08:40.831Z,15.46
2017-09-16T11:11:09.206Z,15.38
2017-09-16T11:13:37.569Z,15.36
2017-09-16T11:16:05.912Z,15.27
2017-09-16T11:18:34.310Z,15.27
2017-09-16T11:21:02.677Z,15.23
2017-09-16T11:23:31.036Z,15.19
2017-09-16T11:25:59.395Z,15.16
2017-09-16T11:28:27.748Z,15.15
2017-09-16T11:30:56.110Z,15.15
2017-09-16T11:33:24.445Z,15.11
2017-09-16T11:35:53.573Z,14.94
2017-09-16T11:38:21.904Z,14.84
2017-09-16T11:40:51.350Z,14.80
2017-09-16T11:43:19.692Z,14.71
2017-09-16T11:45:48.044Z,14.69
2017-09-16T11:48:16.387Z,14.72
2017-09-16T11:50:44.762Z,14.73
2017-09-16T11:53:13.114Z,14.76
2017-09-16T11:55:41.440Z,14.77
2017-09-16T11:58:09.789Z,14.77
2017-09-16T12:00:38.139Z,14.79
2017-09-16T12:03:07.252Z,14.75
2017-09-16T12:05:35.610Z,14.81
2017-09-16T12:08:03.968Z,14.88
2017-09-16T12:10:32.326Z,14.87
2017-09-16T12:13:00.665Z,14.90
2017-09-16T12:15:29.784Z,14.86
2017-09-16T12:17:58.124Z,14.76
2017-09-16T12:20:26.438Z,14.80
2017-09-16T12:22:54.785Z,14.83
2017-09-16T12:25:23.121Z,14.91
2017-09-16T12:27:51.480Z,14.88
2017-09-16T12:30:19.848Z,14.93
2017-09-16T12:32:49.196Z,14.90
2017-09-16T12:35:17.525Z,14.97
2017-09-16T12:37:45.870Z,14.93
2017-09-16T12:40:14.226Z,14.97
2017-09-16T12:42:42.564Z,14.90
2017-09-16T12:45:10.920Z,14.93
2017-09-16T12:47:39.248Z,14.98
2017-09-16T12:50:07.623Z,15.05
2017-09-16T12:52:35.951Z,15.19
2017-09-16T12:55:04.291Z,15.22
2017-09-16T12:57:33.842Z,15.34
2017-09-16T13:00:02.174Z,15.50
2017-09-16T13:02:30.536Z,15.46
2017-09-16T13:04:59.376Z,15.52
2017-09-16T13:07:27.728Z,15.57
2017-09-16T13:09:56.052Z,15.64
2017-09-16T13:12:24.412Z,15.75
2017-09-16T13:14:52.759Z,15.90
2017-09-16T13:17:21.077Z,15.95
2017-09-16T13:19:49.421Z,15.95
2017-09-16T13:22:18.555Z,15.90
2017-09-16T13:24:47.892Z,16.02
2017-09-16T13:27:17.025Z,15.93
2017-09-16T13:29:45.368Z,15.83
2017-09-16T13:32:14.466Z,15.87
2017-09-16T13:34:42.825Z,15.86
2017-09-16T13:37:11.199Z,15.86
2017-09-16T13:39:39.550Z,15.82
2017-09-16T13:42:07.912Z,15.85
2017-09-16T13:44:36.220Z,15.94
2017-09-16T13:47:04.573Z,16.03
2017-09-16T13:49:32.926Z,16.09
2017-09-16T13:52:01.298Z,16.09
2017-09-16T13:54:29.660Z,16.05
2017-09-16T13:56:57.997Z,16.04
2017-09-16T13:59:26.360Z,15.97
2017-09-16T14:01:54.746Z,15.99
2017-09-16T14:04:23.094Z,16.11
2017-09-16T14:06:51.665Z,16.18
2017-09-16T14:09:20.770Z,16.16
2017-09-16T14:11:49.129Z,16.11
2017-09-16T14:14:17.474Z,16.04
2017-09-16T14:16:45.820Z,15.98
2017-09-16T14:19:14.170Z,15.98
2017-09-16T14:21:43.382Z,15.87
2017-09-16T14:24:11.758Z,15.77
2017-09-16T14:26:40.127Z,15.78
2017-09-16T14:29:08.491Z,15.76
2017-09-16T14:31:36.856Z,15.79
2017-09-16T14:34:05.528Z,15.67
2017-09-16T14:36:34.781Z,15.67
2017-09-16T14:39:04.293Z,15.59
2017-09-16T14:41:33.500Z,15.56
2017-09-16T14:44:01.955Z,15.52
2017-09-16T14:46:34.551Z,15.53
2017-09-16T14:49:07.603Z,15.53
2017-09-16T14:51:42.442Z,15.44
2017-09-16T14:54:14.509Z,15.29
2017-09-16T14:56:45.722Z,15.21
2017-09-16T14:59:15.551Z,15.16
2017-09-16T15:01:45.753Z,15.13
2017-09-16T15:04:14.112Z,15.04
2017-09-16T15:06:42.439Z,14.89
2017-09-16T15:09:10.792Z,14.64
2017-09-16T15:11:39.108Z,14.20
2017-09-16T15:14:07.849Z,14.11
2017-09-16T15:16:36.958Z,13.80
2017-09-16T15:19:05.285Z,13.67
2017-09-16T15:21:33.643Z,13.39
2017-09-16T15:24:01.976Z,13.10
2017-09-16T15:26:30.609Z,12.91
2017-09-16T15:28:59.040Z,12.78
2017-09-16T15:31:27.371Z,12.69
2017-09-16T15:33:55.721Z,12.66
2017-09-16T15:36:24.841Z,12.52
2017-09-16T15:38:53.770Z,12.23
2017-09-16T15:41:22.106Z,12.29
2017-09-16T15:43:50.435Z,12.27
2017-09-16T15:46:18.808Z,12.24
2017-09-16T15:48:47.138Z,12.18
2017-09-16T15:51:15.498Z,12.19
2017-09-16T15:53:43.840Z,12.21
2017-09-16T15:56:12.189Z,12.15
2017-09-16T15:58:40.539Z,11.99
2017-09-16T16:01:08.881Z,11.98
2017-09-16T16:03:37.545Z,11.97
2017-09-16T16:06:05.876Z,12.05
2017-09-16T16:08:34.968Z,12.03
2017-09-16T16:11:03.313Z,11.99
2017-09-16T16:13:31.628Z,11.98
2017-09-16T16:16:00.264Z,12.06
2017-09-16T16:18:28.604Z,12.24
2017-09-16T16:20:56.952Z,12.26
2017-09-16T16:23:25.350Z,12.30
2017-09-16T16:25:53.692Z,12.46
2017-09-16T16:28:22.622Z,12.49
2017-09-16T16:30:50.982Z,12.48
2017-09-16T16:33:19.389Z,12.50
2017-09-16T16:35:47.757Z,12.32
2017-09-16T16:38:17.126Z,12.22
2017-09-16T16:40:46.050Z,12.12
2017-09-16T16:43:14.386Z,11.96
2017-09-16T16:45:42.704Z,11.90
2017-09-16T16:48:11.854Z,11.87
2017-09-16T16:50:40.197Z,11.86
2017-09-16T16:53:08.544Z,11.80
2017-09-16T16:55:36.889Z,11.77
2017-09-16T16:58:05.243Z,11.67
2017-09-16T17:00:33.589Z,11.74
2017-09-16T17:03:02.002Z,11.65
2017-09-16T17:05:30.352Z,11.73
2017-09-16T17:07:58.673Z,11.75
2017-09-16T17:10:27.023Z,11.76
2017-09-16T17:12:55.369Z,11.80
2017-09-16T17:15:23.744Z,11.85
2017-09-16T17:17:52.092Z,11.76
2017-09-16T17:20:20.396Z,11.62
2017-09-16T17:22:48.732Z,11.48
2017-09-16T17:25:17.879Z,11.38
2017-09-16T17:27:46.213Z,11.39
2017-09-16T17:30:14.538Z,11.43
2017-09-16T17:32:43.146Z,11.40
2017-09-16T17:35:11.469Z,11.39
2017-09-16T17:37:39.919Z,11.35
2017-09-16T17:40:09.025Z,11.26
2017-09-16T17:42:38.218Z,11.25
2017-09-16T17:45:07.353Z,11.20
2017-09-16T17:47:35.673Z,11.16
2017-09-16T17:50:04.372Z,11.10
2017-09-16T17:52:32.696Z,11.07
2017-09-16T17:55:01.032Z,11.13
2017-09-16T17:57:30.126Z,11.08
2017-09-16T17:59:58.443Z,11.15
2017-09-16T18:02:26.796Z,11.06
2017-09-16T18:04:55.871Z,11.16
2017-09-16T18:07:24.209Z,11.08
2017-09-16T18:09:52.548Z,11.07
2017-09-16T18:12:21.645Z,11.07
2017-09-16T18:14:50.752Z,10.98
2017-09-16T18:17:19.084Z,10.86
2017-09-16T18:19:48.260Z,10.82
2017-09-16T18:22:16.614Z,10.75
2017-09-16T18:24:45.258Z,10.76
2017-09-16T18:27:14.369Z,10.71
2017-09-16T18:29:42.692Z,10.71
2017-09-16T18:32:11.053Z,10.66
2017-09-16T18:34:40.148Z,10.71
2017-09-16T18:37:09.245Z,10.70
2017-09-16T18:39:37.574Z,10.66
2017-09-16T18:42:06.204Z,10.63
2017-09-16T18:44:34.531Z,10.51
2017-09-16T18:47:02.873Z,10.48
2017-09-16T18:49:31.212Z,10.44
2017-09-16T18:51:59.612Z,10.49
2017-09-16T18:54:28.711Z,10.56
2017-09-16T18:56:57.872Z,10.57
2017-09-16T18:59:26.478Z,10.61
2017-09-16T19:01:54.810Z,10.51
2017-09-16T19:04:23.150Z,10.50
2017-09-16T19:06:53.618Z,10.50
2017-09-16T19:09:21.952Z,10.41
2017-09-16T19:11:51.736Z,10.25
2017-09-16T19:14:20.263Z,10.23
2017-09-16T19:16:52.998Z,10.26
2017-09-16T19:19:21.345Z,10.25
2017-09-16T19:21:49.741Z,10.29
2017-09-16T19:24:18.117Z,10.28
2017-09-16T19:26:46.453Z,10.15
2017-09-16T19:29:15.606Z,10.02
2017-09-16T19:31:43.936Z,10.06
2017-09-16T19:34:12.534Z,9.97
2017-09-16T19:36:41.611Z,9.87
2017-09-16T19:39:10.737Z,9.86
2017-09-16T19:41:39.088Z,9.81
2017-09-16T19:44:07.413Z,9.94
2017-09-16T19:46:35.758Z,9.79
2017-09-16T19:49:04.086Z,9.78
2017-09-16T19:51:32.825Z,9.82
2017-09-16T19:54:01.165Z,9.93
2017-09-16T19:56:29.495Z,9.96
2017-09-16T19:58:57.822Z,9.91
2017-09-16T20:01:26.149Z,9.82
2017-09-16T20:03:55.032Z,9.84
2017-09-16T20:06:23.381Z,9.89
2017-09-16T20:08:51.699Z,9.81
2017-09-16T20:11:20.054Z,9.82
2017-09-16T20:13:49.157Z,9.91
2017-09-16T20:16:17.502Z,9.98
2017-09-16T20:18:45.838Z,10.00
2017-09-16T20:21:14.553Z,10.03
2017-09-16T20:23:42.874Z,10.05
2017-09-16T20:26:11.339Z,10.02
2017-09-16T20:28:39.679Z,9.97
2017-09-16T20:31:08.922Z,9.92
2017-09-16T20:33:37.313Z,9.92
2017-09-16T20:36:06.007Z,9.84
2017-09-16T20:38:34.800Z,9.72
2017-09-16T20:41:03.117Z,9.67
2017-09-16T20:43:31.535Z,9.64
2017-09-16T20:45:59.905Z,9.63
2017-09-16T20:48:28.216Z,9.71
2017-09-16T20:50:58.899Z,9.80
2017-09-16T20:53:27.212Z,9.88
2017-09-16T20:55:55.887Z,9.92
2017-09-16T20:58:24.207Z,9.90
2017-09-16T21:00:53.288Z,9.75
2017-09-16T21:03:21.639Z,9.64
2017-09-16T21:05:50.024Z,9.48
2017-09-16T21:08:18.426Z,9.48
2017-09-16T21:10:46.764Z,9.44
2017-09-16T21:13:15.368Z,9.46
2017-09-16T21:15:43.710Z,9.33
2017-09-16T21:18:12.035Z,9.29
2017-09-16T21:20:40.381Z,9.31
2017-09-16T21:23:08.712Z,9.29
2017-09-16T21:25:38.237Z,9.47
2017-09-16T21:28:07.314Z,9.48
2017-09-16T21:30:35.944Z,9.53
2017-09-16T21:33:04.248Z,9.60
2017-09-16T21:35:32.569Z,9.43
2017-09-16T21:38:01.056Z,9.45
2017-09-16T21:40:30.154Z,9.47
2017-09-16T21:42:58.565Z,9.54
2017-09-16T21:45:26.889Z,9.55
2017-09-16T21:47:55.216Z,9.50
2017-09-16T21:50:23.604Z,9.47
2017-09-16T21:52:51.945Z,9.41
2017-09-16T21:55:21.119Z,9.42
2017-09-16T21:57:49.426Z,9.40
2017-09-16T22:00:19.019Z,9.34
2017-09-16T22:02:47.356Z,9.33
2017-09-16T22:05:15.674Z,9.38
2017-09-16T22:07:44.009Z,9.25
2017-09-16T22:10:12.328Z,9.12
2017-09-16T22:12:40.668Z,9.01
2017-09-16T22:15:09.075Z,8.99
2017-09-16T22:17:37.524Z,8.94
2017-09-16T22:20:05.949Z,8.87
2017-09-16T22:22:34.339Z,9.03
2017-09-16T22:25:03.489Z,8.92
2017-09-16T22:27:32.567Z,8.87
2017-09-16T22:30:00.953Z,8.85
2017-09-16T22:32:29.954Z,8.88
2017-09-16T22:34:58.340Z,9.00
2017-09-16T22:37:27.471Z,9.09
2017-09-16T22:39:55.811Z,8.91
2017-09-16T22:42:24.178Z,8.90
2017-09-16T22:44:52.624Z,9.00
2017-09-16T22:47:22.249Z,8.96
2017-09-16T22:49:51.473Z,8.92
2017-09-16T22:52:19.805Z,8.98
2017-09-16T22:54:48.251Z,8.94
2017-09-16T22:57:16.597Z,8.91
2017-09-16T22:59:45.259Z,8.89
2017-09-16T23:02:14.528Z,8.80
2017-09-16T23:04:42.898Z,8.79
2017-09-16T23:07:11.246Z,8.90
2017-09-16T23:09:39.712Z,9.01
2017-09-16T23:12:08.870Z,9.13
2017-09-16T23:14:37.203Z,8.88
2017-09-16T23:17:05.584Z,8.80
2017-09-16T23:19:34.046Z,8.90
2017-09-16T23:22:02.408Z,8.93
2017-09-16T23:24:30.760Z,9.03
2017-09-16T23:26:59.114Z,8.91
2017-09-16T23:29:27.480Z,8.86
2017-09-16T23:31:56.581Z,8.85
2017-09-16T23:34:24.951Z,8.86
2017-09-16T23:36:53.306Z,8.93
2017-09-16T23:39:21.646Z,8.89
2017-09-16T23:41:50.041Z,8.88
2017-09-16T23:44:18.378Z,8.69
2017-09-16T23:46:47.059Z,8.68
2017-09-16T23:49:16.179Z,8.59
2017-09-16T23:51:44.511Z,8.61
2017-09-16T23:54:13.351Z,8.71
2017-09-16T23:56:41.695Z,8.85
2017-09-16T23:59:10.828Z,8.84
